sensor_id;sensor_type;location;lat;lon;timestamp;P1;durP1;ratioP1;P2;durP2;ratioP2
6251;SDS011;3159;52.414;9.784;2023-02-04T00:01:31;17.87;;;3.27;;
6251;SDS011;3159;52.414;9.784;2023-02-04T00:03:58;17.43;;;2.87;;
6251;SDS011;3159;52.414;9.784;2023-02-04T00:06:25;16.40;;;3.27;;
6251;SDS011;3159;52.414;9.784;2023-02-04T00:08:52;13.93;;;3.03;;
6251;SDS011;3159;52.414;9.784;2023-02-04T00:11:20;17.77;;;2.63;;
6251;SDS011;3159;52.414;9.784;2023-02-04T00:13:47;14.37;;;2.77;;
6251;SDS011;3159;52.414;9.784;2023-02-04T00:16:14;13.40;;;3.37;;
6251;SDS011;3159;52.414;9.784;2023-02-04T00:18:40;9.33;;;2.60;;
6251;SDS011;3159;52.414;9.784;2023-02-04T00:21:07;13.27;;;2.17;;
6251;SDS011;3159;52.414;9.784;2023-02-04T00:23:34;12.43;;;2.17;;
6251;SDS011;3159;52.414;9.784;2023-02-04T00:26:01;8.90;;;2.40;;
6251;SDS011;3159;52.414;9.784;2023-02-04T00:28:29;11.50;;;2.33;;
6251;SDS011;3159;52.414;9.784;2023-02-04T00:30:56;14.17;;;2.00;;
6251;SDS011;3159;52.414;9.784;2023-02-04T00:33:23;11.43;;;2.43;;
6251;SDS011;3159;52.414;9.784;2023-02-04T00:35:49;10.80;;;1.93;;
6251;SDS011;3159;52.414;9.784;2023-02-04T00:38:16;13.97;;;2.50;;
6251;SDS011;3159;52.414;9.784;2023-02-04T00:40:43;13.67;;;2.47;;
6251;SDS011;3159;52.414;9.784;2023-02-04T00:43:10;7.13;;;2.30;;
6251;SDS011;3159;52.414;9.784;2023-02-04T00:45:38;11.17;;;1.90;;
6251;SDS011;3159;52.414;9.784;2023-02-04T00:48:05;8.00;;;1.53;;
6251;SDS011;3159;52.414;9.784;2023-02-04T00:50:32;7.20;;;2.10;;
6251;SDS011;3159;52.414;9.784;2023-02-04T00:53:03;11.90;;;1.80;;
6251;SDS011;3159;52.414;9.784;2023-02-04T00:55:30;5.00;;;1.70;;
6251;SDS011;3159;52.414;9.784;2023-02-04T00:57:57;5.77;;;1.27;;
6251;SDS011;3159;52.414;9.784;2023-02-04T01:00:24;6.40;;;1.60;;
6251;SDS011;3159;52.414;9.784;2023-02-04T01:02:52;5.43;;;1.17;;
6251;SDS011;3159;52.414;9.784;2023-02-04T01:05:19;2.90;;;0.73;;
6251;SDS011;3159;52.414;9.784;2023-02-04T01:07:46;3.70;;;0.87;;
6251;SDS011;3159;52.414;9.784;2023-02-04T01:10:13;4.27;;;1.03;;
6251;SDS011;3159;52.414;9.784;2023-02-04T01:12:41;4.57;;;1.00;;
6251;SDS011;3159;52.414;9.784;2023-02-04T01:15:09;3.87;;;0.80;;
6251;SDS011;3159;52.414;9.784;2023-02-04T01:17:36;1.40;;;0.80;;
6251;SDS011;3159;52.414;9.784;2023-02-04T01:20:04;3.93;;;1.10;;
6251;SDS011;3159;52.414;9.784;2023-02-04T01:22:32;7.80;;;0.80;;
6251;SDS011;3159;52.414;9.784;2023-02-04T01:24:59;3.27;;;0.90;;
6251;SDS011;3159;52.414;9.784;2023-02-04T01:27:26;3.43;;;0.90;;
6251;SDS011;3159;52.414;9.784;2023-02-04T01:29:53;2.67;;;0.83;;
6251;SDS011;3159;52.414;9.784;2023-02-04T01:32:19;1.30;;;0.70;;
6251;SDS011;3159;52.414;9.784;2023-02-04T01:34:46;2.97;;;0.70;;
6251;SDS011;3159;52.414;9.784;2023-02-04T01:37:14;1.17;;;0.80;;
6251;SDS011;3159;52.414;9.784;2023-02-04T01:39:42;3.10;;;0.77;;
6251;SDS011;3159;52.414;9.784;2023-02-04T01:42:08;2.37;;;0.93;;
6251;SDS011;3159;52.414;9.784;2023-02-04T01:44:36;2.13;;;0.90;;
6251;SDS011;3159;52.414;9.784;2023-02-04T01:47:03;1.87;;;0.90;;
6251;SDS011;3159;52.414;9.784;2023-02-04T01:49:30;3.17;;;0.93;;
6251;SDS011;3159;52.414;9.784;2023-02-04T01:51:57;2.17;;;0.90;;
6251;SDS011;3159;52.414;9.784;2023-02-04T01:54:25;1.17;;;0.70;;
6251;SDS011;3159;52.414;9.784;2023-02-04T01:56:53;2.30;;;0.80;;
6251;SDS011;3159;52.414;9.784;2023-02-04T01:59:20;1.33;;;0.60;;
6251;SDS011;3159;52.414;9.784;2023-02-04T02:01:48;1.60;;;0.63;;
6251;SDS011;3159;52.414;9.784;2023-02-04T02:04:17;2.97;;;0.73;;
6251;SDS011;3159;52.414;9.784;2023-02-04T02:06:46;1.83;;;0.50;;
6251;SDS011;3159;52.414;9.784;2023-02-04T02:09:16;0.70;;;0.40;;
6251;SDS011;3159;52.414;9.784;2023-02-04T02:11:45;2.23;;;0.80;;
6251;SDS011;3159;52.414;9.784;2023-02-04T02:14:12;1.23;;;0.60;;
6251;SDS011;3159;52.414;9.784;2023-02-04T02:16:39;1.63;;;0.60;;
6251;SDS011;3159;52.414;9.784;2023-02-04T02:19:06;3.00;;;0.90;;
6251;SDS011;3159;52.414;9.784;2023-02-04T02:21:39;1.57;;;0.80;;
6251;SDS011;3159;52.414;9.784;2023-02-04T02:24:24;2.97;;;0.80;;
6251;SDS011;3159;52.414;9.784;2023-02-04T02:26:52;1.30;;;0.70;;
6251;SDS011;3159;52.414;9.784;2023-02-04T02:29:20;1.57;;;0.73;;
6251;SDS011;3159;52.414;9.784;2023-02-04T02:31:48;2.27;;;0.90;;
6251;SDS011;3159;52.414;9.784;2023-02-04T02:34:15;0.90;;;0.90;;
6251;SDS011;3159;52.414;9.784;2023-02-04T02:36:42;0.87;;;0.60;;
6251;SDS011;3159;52.414;9.784;2023-02-04T02:39:10;0.70;;;0.70;;
6251;SDS011;3159;52.414;9.784;2023-02-04T02:41:38;2.43;;;1.03;;
6251;SDS011;3159;52.414;9.784;2023-02-04T02:44:05;0.93;;;0.80;;
6251;SDS011;3159;52.414;9.784;2023-02-04T02:46:34;2.87;;;0.73;;
6251;SDS011;3159;52.414;9.784;2023-02-04T02:49:01;0.70;;;0.70;;
6251;SDS011;3159;52.414;9.784;2023-02-04T02:51:27;3.73;;;1.00;;
6251;SDS011;3159;52.414;9.784;2023-02-04T02:53:55;2.60;;;0.80;;
6251;SDS011;3159;52.414;9.784;2023-02-04T02:56:23;4.13;;;0.90;;
6251;SDS011;3159;52.414;9.784;2023-02-04T02:58:51;1.33;;;0.80;;
6251;SDS011;3159;52.414;9.784;2023-02-04T03:01:18;2.23;;;0.90;;
6251;SDS011;3159;52.414;9.784;2023-02-04T03:03:46;1.30;;;0.87;;
6251;SDS011;3159;52.414;9.784;2023-02-04T03:06:17;1.33;;;0.80;;
6251;SDS011;3159;52.414;9.784;2023-02-04T03:08:47;1.40;;;0.93;;
6251;SDS011;3159;52.414;9.784;2023-02-04T03:11:19;1.53;;;0.80;;
6251;SDS011;3159;52.414;9.784;2023-02-04T03:13:46;2.03;;;0.70;;
6251;SDS011;3159;52.414;9.784;2023-02-04T03:16:14;1.57;;;0.90;;
6251;SDS011;3159;52.414;9.784;2023-02-04T03:18:41;0.67;;;0.60;;
6251;SDS011;3159;52.414;9.784;2023-02-04T03:21:08;1.47;;;0.80;;
6251;SDS011;3159;52.414;9.784;2023-02-04T03:23:35;1.87;;;0.83;;
6251;SDS011;3159;52.414;9.784;2023-02-04T03:26:02;1.17;;;1.03;;
6251;SDS011;3159;52.414;9.784;2023-02-04T03:28:30;1.70;;;1.03;;
6251;SDS011;3159;52.414;9.784;2023-02-04T03:30:57;3.17;;;1.10;;
6251;SDS011;3159;52.414;9.784;2023-02-04T03:33:26;1.33;;;1.00;;
6251;SDS011;3159;52.414;9.784;2023-02-04T03:35:55;1.57;;;1.40;;
6251;SDS011;3159;52.414;9.784;2023-02-04T03:38:22;1.40;;;0.90;;
6251;SDS011;3159;52.414;9.784;2023-02-04T03:40:49;1.90;;;1.00;;
6251;SDS011;3159;52.414;9.784;2023-02-04T03:43:16;1.10;;;0.93;;
6251;SDS011;3159;52.414;9.784;2023-02-04T03:45:43;1.70;;;0.83;;
6251;SDS011;3159;52.414;9.784;2023-02-04T03:48:10;1.30;;;1.00;;
6251;SDS011;3159;52.414;9.784;2023-02-04T03:50:38;1.23;;;1.00;;
6251;SDS011;3159;52.414;9.784;2023-02-04T03:53:05;2.10;;;1.00;;
6251;SDS011;3159;52.414;9.784;2023-02-04T03:55:32;2.40;;;1.10;;
6251;SDS011;3159;52.414;9.784;2023-02-04T03:58:00;3.87;;;1.13;;
6251;SDS011;3159;52.414;9.784;2023-02-04T04:00:27;1.23;;;0.90;;
6251;SDS011;3159;52.414;9.784;2023-02-04T04:02:53;2.47;;;1.10;;
6251;SDS011;3159;52.414;9.784;2023-02-04T04:05:21;2.33;;;1.13;;
6251;SDS011;3159;52.414;9.784;2023-02-04T04:07:49;2.30;;;1.30;;
6251;SDS011;3159;52.414;9.784;2023-02-04T04:10:16;1.90;;;1.10;;
6251;SDS011;3159;52.414;9.784;2023-02-04T04:12:43;1.17;;;1.00;;
6251;SDS011;3159;52.414;9.784;2023-02-04T04:15:10;1.67;;;1.13;;
6251;SDS011;3159;52.414;9.784;2023-02-04T04:17:38;1.70;;;0.97;;
6251;SDS011;3159;52.414;9.784;2023-02-04T04:20:05;1.93;;;1.30;;
6251;SDS011;3159;52.414;9.784;2023-02-04T04:22:32;3.80;;;1.10;;
6251;SDS011;3159;52.414;9.784;2023-02-04T04:25:00;2.63;;;1.00;;
6251;SDS011;3159;52.414;9.784;2023-02-04T04:27:27;1.40;;;1.10;;
6251;SDS011;3159;52.414;9.784;2023-02-04T04:29:54;1.40;;;1.13;;
6251;SDS011;3159;52.414;9.784;2023-02-04T04:32:21;1.60;;;1.00;;
6251;SDS011;3159;52.414;9.784;2023-02-04T04:34:47;2.57;;;1.00;;
6251;SDS011;3159;52.414;9.784;2023-02-04T04:37:14;1.80;;;1.20;;
6251;SDS011;3159;52.414;9.784;2023-02-04T04:39:41;1.80;;;1.13;;
6251;SDS011;3159;52.414;9.784;2023-02-04T04:42:09;1.23;;;1.00;;
6251;SDS011;3159;52.414;9.784;2023-02-04T04:44:36;1.40;;;1.30;;
6251;SDS011;3159;52.414;9.784;2023-02-04T04:47:03;0.90;;;0.90;;
6251;SDS011;3159;52.414;9.784;2023-02-04T04:49:29;1.07;;;0.90;;
6251;SDS011;3159;52.414;9.784;2023-02-04T04:51:56;1.27;;;1.10;;
6251;SDS011;3159;52.414;9.784;2023-02-04T04:54:23;1.63;;;1.10;;
6251;SDS011;3159;52.414;9.784;2023-02-04T04:56:50;2.07;;;0.97;;
6251;SDS011;3159;52.414;9.784;2023-02-04T04:59:18;1.63;;;1.00;;
6251;SDS011;3159;52.414;9.784;2023-02-04T05:01:45;1.87;;;1.00;;
6251;SDS011;3159;52.414;9.784;2023-02-04T05:04:12;1.27;;;1.00;;
6251;SDS011;3159;52.414;9.784;2023-02-04T05:06:38;2.23;;;1.20;;
6251;SDS011;3159;52.414;9.784;2023-02-04T05:09:05;1.10;;;1.00;;
6251;SDS011;3159;52.414;9.784;2023-02-04T05:11:33;2.13;;;0.90;;
6251;SDS011;3159;52.414;9.784;2023-02-04T05:14:00;2.77;;;1.37;;
6251;SDS011;3159;52.414;9.784;2023-02-04T05:16:28;1.40;;;1.30;;
6251;SDS011;3159;52.414;9.784;2023-02-04T05:18:55;1.20;;;1.00;;
6251;SDS011;3159;52.414;9.784;2023-02-04T05:21:22;1.50;;;1.20;;
6251;SDS011;3159;52.414;9.784;2023-02-04T05:23:48;1.03;;;0.93;;
6251;SDS011;3159;52.414;9.784;2023-02-04T05:26:15;1.30;;;1.10;;
6251;SDS011;3159;52.414;9.784;2023-02-04T05:28:42;1.63;;;1.00;;
6251;SDS011;3159;52.414;9.784;2023-02-04T05:31:10;1.93;;;1.20;;
6251;SDS011;3159;52.414;9.784;2023-02-04T05:33:38;1.67;;;1.30;;
6251;SDS011;3159;52.414;9.784;2023-02-04T05:36:05;2.20;;;1.00;;
6251;SDS011;3159;52.414;9.784;2023-02-04T05:38:32;1.70;;;1.30;;
6251;SDS011;3159;52.414;9.784;2023-02-04T05:40:59;1.30;;;1.20;;
6251;SDS011;3159;52.414;9.784;2023-02-04T05:43:25;2.90;;;1.30;;
6251;SDS011;3159;52.414;9.784;2023-02-04T05:45:52;1.30;;;1.20;;
6251;SDS011;3159;52.414;9.784;2023-02-04T05:48:19;1.70;;;1.27;;
6251;SDS011;3159;52.414;9.784;2023-02-04T05:50:47;2.43;;;1.60;;
6251;SDS011;3159;52.414;9.784;2023-02-04T05:53:14;2.60;;;1.30;;
6251;SDS011;3159;52.414;9.784;2023-02-04T05:55:41;2.20;;;1.30;;
6251;SDS011;3159;52.414;9.784;2023-02-04T05:58:08;2.53;;;1.40;;
6251;SDS011;3159;52.414;9.784;2023-02-04T06:00:34;2.20;;;1.30;;
6251;SDS011;3159;52.414;9.784;2023-02-04T06:03:01;2.07;;;1.20;;
6251;SDS011;3159;52.414;9.784;2023-02-04T06:05:28;2.00;;;1.30;;
6251;SDS011;3159;52.414;9.784;2023-02-04T06:07:56;1.40;;;1.20;;
6251;SDS011;3159;52.414;9.784;2023-02-04T06:10:23;1.33;;;1.10;;
6251;SDS011;3159;52.414;9.784;2023-02-04T06:12:50;1.10;;;1.10;;
6251;SDS011;3159;52.414;9.784;2023-02-04T06:15:16;1.40;;;1.13;;
6251;SDS011;3159;52.414;9.784;2023-02-04T06:17:44;3.17;;;1.30;;
6251;SDS011;3159;52.414;9.784;2023-02-04T06:20:12;1.43;;;1.10;;
6251;SDS011;3159;52.414;9.784;2023-02-04T06:22:39;1.10;;;1.10;;
6251;SDS011;3159;52.414;9.784;2023-02-04T06:25:08;1.20;;;1.10;;
6251;SDS011;3159;52.414;9.784;2023-02-04T06:27:34;1.20;;;1.10;;
6251;SDS011;3159;52.414;9.784;2023-02-04T06:30:01;2.23;;;1.33;;
6251;SDS011;3159;52.414;9.784;2023-02-04T06:32:28;1.60;;;1.10;;
6251;SDS011;3159;52.414;9.784;2023-02-04T06:34:55;2.03;;;1.40;;
6251;SDS011;3159;52.414;9.784;2023-02-04T06:37:22;1.43;;;1.33;;
6251;SDS011;3159;52.414;9.784;2023-02-04T06:39:49;1.33;;;1.23;;
6251;SDS011;3159;52.414;9.784;2023-02-04T06:42:17;1.90;;;1.10;;
6251;SDS011;3159;52.414;9.784;2023-02-04T06:44:44;1.63;;;1.00;;
6251;SDS011;3159;52.414;9.784;2023-02-04T06:47:10;2.93;;;1.43;;
6251;SDS011;3159;52.414;9.784;2023-02-04T06:49:37;1.40;;;1.10;;
6251;SDS011;3159;52.414;9.784;2023-02-04T06:52:04;2.37;;;1.30;;
6251;SDS011;3159;52.414;9.784;2023-02-04T06:54:31;1.40;;;1.30;;
6251;SDS011;3159;52.414;9.784;2023-02-04T06:56:57;2.53;;;1.53;;
6251;SDS011;3159;52.414;9.784;2023-02-04T06:59:31;2.43;;;1.20;;
6251;SDS011;3159;52.414;9.784;2023-02-04T07:01:59;2.73;;;1.50;;
6251;SDS011;3159;52.414;9.784;2023-02-04T07:04:29;1.40;;;1.30;;
6251;SDS011;3159;52.414;9.784;2023-02-04T07:06:55;1.83;;;1.53;;
6251;SDS011;3159;52.414;9.784;2023-02-04T07:09:22;3.67;;;1.60;;
6251;SDS011;3159;52.414;9.784;2023-02-04T07:11:49;2.30;;;1.43;;
6251;SDS011;3159;52.414;9.784;2023-02-04T07:14:16;3.37;;;1.80;;
6251;SDS011;3159;52.414;9.784;2023-02-04T07:16:45;4.20;;;1.97;;
6251;SDS011;3159;52.414;9.784;2023-02-04T07:19:12;4.10;;;2.20;;
6251;SDS011;3159;52.414;9.784;2023-02-04T07:21:38;2.10;;;1.80;;
6251;SDS011;3159;52.414;9.784;2023-02-04T07:24:05;2.73;;;2.17;;
6251;SDS011;3159;52.414;9.784;2023-02-04T07:26:32;3.93;;;2.10;;
6251;SDS011;3159;52.414;9.784;2023-02-04T07:28:59;2.10;;;1.90;;
6251;SDS011;3159;52.414;9.784;2023-02-04T07:31:26;3.33;;;1.83;;
6251;SDS011;3159;52.414;9.784;2023-02-04T07:33:55;2.97;;;2.20;;
6251;SDS011;3159;52.414;9.784;2023-02-04T07:36:21;3.70;;;2.47;;
6251;SDS011;3159;52.414;9.784;2023-02-04T07:38:50;3.30;;;2.10;;
6251;SDS011;3159;52.414;9.784;2023-02-04T07:41:17;3.73;;;2.03;;
6251;SDS011;3159;52.414;9.784;2023-02-04T07:43:45;2.90;;;2.30;;
6251;SDS011;3159;52.414;9.784;2023-02-04T07:46:11;2.33;;;2.03;;
6251;SDS011;3159;52.414;9.784;2023-02-04T07:48:38;2.40;;;2.20;;
6251;SDS011;3159;52.414;9.784;2023-02-04T07:51:06;2.20;;;2.00;;
6251;SDS011;3159;52.414;9.784;2023-02-04T07:53:34;3.10;;;2.30;;
6251;SDS011;3159;52.414;9.784;2023-02-04T07:56:01;3.17;;;2.07;;
6251;SDS011;3159;52.414;9.784;2023-02-04T07:58:28;2.53;;;2.00;;
6251;SDS011;3159;52.414;9.784;2023-02-04T08:00:55;2.10;;;1.87;;
6251;SDS011;3159;52.414;9.784;2023-02-04T08:03:22;3.60;;;2.70;;
6251;SDS011;3159;52.414;9.784;2023-02-04T08:05:48;2.20;;;2.00;;
6251;SDS011;3159;52.414;9.784;2023-02-04T08:08:17;2.60;;;2.17;;
6251;SDS011;3159;52.414;9.784;2023-02-04T08:10:44;2.37;;;2.07;;
6251;SDS011;3159;52.414;9.784;2023-02-04T08:13:11;2.83;;;2.20;;
6251;SDS011;3159;52.414;9.784;2023-02-04T08:15:38;3.70;;;2.13;;
6251;SDS011;3159;52.414;9.784;2023-02-04T08:18:05;3.87;;;2.13;;
6251;SDS011;3159;52.414;9.784;2023-02-04T08:20:32;3.17;;;2.63;;
6251;SDS011;3159;52.414;9.784;2023-02-04T08:22:58;2.40;;;2.20;;
6251;SDS011;3159;52.414;9.784;2023-02-04T08:25:27;4.03;;;2.40;;
6251;SDS011;3159;52.414;9.784;2023-02-04T08:27:54;3.20;;;2.33;;
6251;SDS011;3159;52.414;9.784;2023-02-04T08:30:20;7.97;;;2.40;;
6251;SDS011;3159;52.414;9.784;2023-02-04T08:32:47;2.40;;;2.20;;
6251;SDS011;3159;52.414;9.784;2023-02-04T08:35:14;2.40;;;2.20;;
6251;SDS011;3159;52.414;9.784;2023-02-04T08:37:41;4.57;;;2.53;;
6251;SDS011;3159;52.414;9.784;2023-02-04T08:40:09;3.23;;;2.13;;
6251;SDS011;3159;52.414;9.784;2023-02-04T08:42:38;3.67;;;2.27;;
6251;SDS011;3159;52.414;9.784;2023-02-04T08:45:05;2.90;;;2.27;;
6251;SDS011;3159;52.414;9.784;2023-02-04T08:47:32;4.30;;;2.37;;
6251;SDS011;3159;52.414;9.784;2023-02-04T08:49:59;3.77;;;1.90;;
6251;SDS011;3159;52.414;9.784;2023-02-04T08:52:25;2.40;;;1.83;;
6251;SDS011;3159;52.414;9.784;2023-02-04T08:54:52;2.83;;;2.30;;
6251;SDS011;3159;52.414;9.784;2023-02-04T08:57:19;6.83;;;2.27;;
6251;SDS011;3159;52.414;9.784;2023-02-04T08:59:47;2.40;;;2.20;;
6251;SDS011;3159;52.414;9.784;2023-02-04T09:02:14;3.00;;;1.93;;
6251;SDS011;3159;52.414;9.784;2023-02-04T09:04:41;3.00;;;1.97;;
6251;SDS011;3159;52.414;9.784;2023-02-04T09:07:08;3.50;;;1.80;;
6251;SDS011;3159;52.414;9.784;2023-02-04T09:09:35;1.97;;;1.60;;
6251;SDS011;3159;52.414;9.784;2023-02-04T09:12:02;1.67;;;1.57;;
6251;SDS011;3159;52.414;9.784;2023-02-04T09:14:29;2.83;;;1.60;;
6251;SDS011;3159;52.414;9.784;2023-02-04T09:16:57;2.27;;;1.70;;
6251;SDS011;3159;52.414;9.784;2023-02-04T09:19:23;2.03;;;1.60;;
6251;SDS011;3159;52.414;9.784;2023-02-04T09:21:50;2.77;;;1.63;;
6251;SDS011;3159;52.414;9.784;2023-02-04T09:24:17;3.43;;;1.57;;
6251;SDS011;3159;52.414;9.784;2023-02-04T09:26:47;2.93;;;1.57;;
6251;SDS011;3159;52.414;9.784;2023-02-04T09:29:14;2.43;;;1.50;;
6251;SDS011;3159;52.414;9.784;2023-02-04T09:31:41;3.70;;;1.67;;
6251;SDS011;3159;52.414;9.784;2023-02-04T09:34:09;1.70;;;1.60;;
6251;SDS011;3159;52.414;9.784;2023-02-04T09:36:36;3.63;;;1.77;;
6251;SDS011;3159;52.414;9.784;2023-02-04T09:39:03;3.27;;;1.50;;
6251;SDS011;3159;52.414;9.784;2023-02-04T09:41:31;2.37;;;1.40;;
6251;SDS011;3159;52.414;9.784;2023-02-04T09:43:58;2.50;;;1.30;;
6251;SDS011;3159;52.414;9.784;2023-02-04T09:46:26;2.67;;;1.20;;
6251;SDS011;3159;52.414;9.784;2023-02-04T09:48:54;2.37;;;1.30;;
6251;SDS011;3159;52.414;9.784;2023-02-04T09:51:24;3.57;;;1.33;;
6251;SDS011;3159;52.414;9.784;2023-02-04T09:53:53;2.57;;;1.50;;
6251;SDS011;3159;52.414;9.784;2023-02-04T09:56:27;1.50;;;1.27;;
6251;SDS011;3159;52.414;9.784;2023-02-04T09:58:54;2.40;;;1.30;;
6251;SDS011;3159;52.414;9.784;2023-02-04T10:01:21;2.83;;;1.50;;
6251;SDS011;3159;52.414;9.784;2023-02-04T10:03:48;3.63;;;1.63;;
6251;SDS011;3159;52.414;9.784;2023-02-04T10:06:16;1.57;;;1.30;;
6251;SDS011;3159;52.414;9.784;2023-02-04T10:08:46;1.97;;;1.03;;
6251;SDS011;3159;52.414;9.784;2023-02-04T10:11:15;2.40;;;1.30;;
6251;SDS011;3159;52.414;9.784;2023-02-04T10:13:45;1.63;;;0.90;;
6251;SDS011;3159;52.414;9.784;2023-02-04T10:16:16;2.10;;;1.10;;
6251;SDS011;3159;52.414;9.784;2023-02-04T10:18:44;4.23;;;1.30;;
6251;SDS011;3159;52.414;9.784;2023-02-04T10:21:14;3.27;;;1.70;;
6251;SDS011;3159;52.414;9.784;2023-02-04T10:23:43;2.73;;;1.20;;
6251;SDS011;3159;52.414;9.784;2023-02-04T10:26:14;2.53;;;1.60;;
6251;SDS011;3159;52.414;9.784;2023-02-04T10:28:42;2.27;;;1.60;;
6251;SDS011;3159;52.414;9.784;2023-02-04T10:31:26;1.50;;;1.40;;
6251;SDS011;3159;52.414;9.784;2023-02-04T10:34:02;2.23;;;1.30;;
6251;SDS011;3159;52.414;9.784;2023-02-04T10:36:37;2.73;;;1.30;;
6251;SDS011;3159;52.414;9.784;2023-02-04T10:39:09;0.90;;;0.87;;
6251;SDS011;3159;52.414;9.784;2023-02-04T10:41:38;3.03;;;1.40;;
6251;SDS011;3159;52.414;9.784;2023-02-04T10:44:12;1.73;;;1.20;;
6251;SDS011;3159;52.414;9.784;2023-02-04T10:46:40;2.40;;;1.10;;
6251;SDS011;3159;52.414;9.784;2023-02-04T10:49:15;2.13;;;1.00;;
6251;SDS011;3159;52.414;9.784;2023-02-04T10:51:44;2.50;;;1.20;;
6251;SDS011;3159;52.414;9.784;2023-02-04T10:54:13;2.33;;;1.00;;
6251;SDS011;3159;52.414;9.784;2023-02-04T10:56:55;0.90;;;0.90;;
6251;SDS011;3159;52.414;9.784;2023-02-04T10:59:23;2.63;;;0.90;;
6251;SDS011;3159;52.414;9.784;2023-02-04T11:01:53;2.07;;;1.37;;
6251;SDS011;3159;52.414;9.784;2023-02-04T11:04:21;1.47;;;1.30;;
6251;SDS011;3159;52.414;9.784;2023-02-04T11:06:48;1.73;;;1.17;;
6251;SDS011;3159;52.414;9.784;2023-02-04T11:09:18;3.10;;;1.40;;
6251;SDS011;3159;52.414;9.784;2023-02-04T11:11:45;1.77;;;0.97;;
6251;SDS011;3159;52.414;9.784;2023-02-04T11:14:18;1.20;;;1.03;;
6251;SDS011;3159;52.414;9.784;2023-02-04T11:16:48;2.93;;;1.00;;
6251;SDS011;3159;52.414;9.784;2023-02-04T11:19:28;2.40;;;1.43;;
6251;SDS011;3159;52.414;9.784;2023-02-04T11:22:03;1.23;;;1.13;;
6251;SDS011;3159;52.414;9.784;2023-02-04T11:24:48;1.27;;;1.10;;
6251;SDS011;3159;52.414;9.784;2023-02-04T11:27:19;2.70;;;1.50;;
6251;SDS011;3159;52.414;9.784;2023-02-04T11:29:49;2.70;;;1.43;;
6251;SDS011;3159;52.414;9.784;2023-02-04T11:32:27;2.63;;;1.20;;
6251;SDS011;3159;52.414;9.784;2023-02-04T11:35:05;1.20;;;1.10;;
6251;SDS011;3159;52.414;9.784;2023-02-04T11:37:45;2.63;;;1.13;;
6251;SDS011;3159;52.414;9.784;2023-02-04T11:40:21;3.30;;;1.90;;
6251;SDS011;3159;52.414;9.784;2023-02-04T11:42:55;2.23;;;1.10;;
6251;SDS011;3159;52.414;9.784;2023-02-04T11:45:24;1.70;;;1.27;;
6251;SDS011;3159;52.414;9.784;2023-02-04T11:47:55;1.30;;;1.20;;
6251;SDS011;3159;52.414;9.784;2023-02-04T11:50:25;1.50;;;1.30;;
6251;SDS011;3159;52.414;9.784;2023-02-04T11:52:54;2.53;;;1.80;;
6251;SDS011;3159;52.414;9.784;2023-02-04T11:55:22;3.17;;;1.43;;
6251;SDS011;3159;52.414;9.784;2023-02-04T11:57:50;1.93;;;1.33;;
6251;SDS011;3159;52.414;9.784;2023-02-04T12:00:19;3.30;;;1.30;;
6251;SDS011;3159;52.414;9.784;2023-02-04T12:02:48;2.93;;;1.30;;
6251;SDS011;3159;52.414;9.784;2023-02-04T12:05:17;1.97;;;1.30;;
6251;SDS011;3159;52.414;9.784;2023-02-04T12:07:46;1.40;;;1.30;;
6251;SDS011;3159;52.414;9.784;2023-02-04T12:10:20;1.83;;;1.20;;
6251;SDS011;3159;52.414;9.784;2023-02-04T12:12:51;2.00;;;1.30;;
6251;SDS011;3159;52.414;9.784;2023-02-04T12:15:22;2.87;;;1.20;;
6251;SDS011;3159;52.414;9.784;2023-02-04T12:18:00;2.53;;;1.50;;
6251;SDS011;3159;52.414;9.784;2023-02-04T12:20:28;2.07;;;1.47;;
6251;SDS011;3159;52.414;9.784;2023-02-04T12:22:55;4.23;;;1.40;;
6251;SDS011;3159;52.414;9.784;2023-02-04T12:25:24;2.50;;;1.67;;
6251;SDS011;3159;52.414;9.784;2023-02-04T12:27:51;1.90;;;1.30;;
6251;SDS011;3159;52.414;9.784;2023-02-04T12:30:19;1.53;;;1.30;;
6251;SDS011;3159;52.414;9.784;2023-02-04T12:32:46;1.50;;;1.10;;
6251;SDS011;3159;52.414;9.784;2023-02-04T12:35:13;2.30;;;1.40;;
6251;SDS011;3159;52.414;9.784;2023-02-04T12:37:40;2.23;;;1.30;;
6251;SDS011;3159;52.414;9.784;2023-02-04T12:40:08;5.27;;;1.40;;
6251;SDS011;3159;52.414;9.784;2023-02-04T12:42:40;3.23;;;1.67;;
6251;SDS011;3159;52.414;9.784;2023-02-04T12:45:07;3.40;;;1.63;;
6251;SDS011;3159;52.414;9.784;2023-02-04T12:47:35;3.37;;;1.70;;
6251;SDS011;3159;52.414;9.784;2023-02-04T12:50:02;1.97;;;1.60;;
6251;SDS011;3159;52.414;9.784;2023-02-04T12:52:29;3.57;;;1.43;;
6251;SDS011;3159;52.414;9.784;2023-02-04T12:54:56;1.43;;;1.30;;
6251;SDS011;3159;52.414;9.784;2023-02-04T12:57:24;2.63;;;1.60;;
6251;SDS011;3159;52.414;9.784;2023-02-04T12:59:52;4.10;;;1.67;;
6251;SDS011;3159;52.414;9.784;2023-02-04T13:02:21;1.93;;;1.50;;
6251;SDS011;3159;52.414;9.784;2023-02-04T13:04:48;1.57;;;1.40;;
6251;SDS011;3159;52.414;9.784;2023-02-04T13:07:15;1.50;;;1.40;;
6251;SDS011;3159;52.414;9.784;2023-02-04T13:09:42;2.07;;;1.80;;
6251;SDS011;3159;52.414;9.784;2023-02-04T13:12:10;2.80;;;1.50;;
6251;SDS011;3159;52.414;9.784;2023-02-04T13:14:37;3.43;;;1.40;;
6251;SDS011;3159;52.414;9.784;2023-02-04T13:17:06;1.90;;;1.23;;
6251;SDS011;3159;52.414;9.784;2023-02-04T13:19:33;2.63;;;1.10;;
6251;SDS011;3159;52.414;9.784;2023-02-04T13:22:00;1.83;;;1.40;;
6251;SDS011;3159;52.414;9.784;2023-02-04T13:24:27;2.67;;;1.63;;
6251;SDS011;3159;52.414;9.784;2023-02-04T13:26:54;3.80;;;1.63;;
6251;SDS011;3159;52.414;9.784;2023-02-04T13:29:21;2.60;;;1.60;;
6251;SDS011;3159;52.414;9.784;2023-02-04T13:31:48;3.30;;;1.60;;
6251;SDS011;3159;52.414;9.784;2023-02-04T13:34:16;2.67;;;1.50;;
6251;SDS011;3159;52.414;9.784;2023-02-04T13:36:43;1.70;;;1.40;;
6251;SDS011;3159;52.414;9.784;2023-02-04T13:39:10;2.43;;;1.40;;
6251;SDS011;3159;52.414;9.784;2023-02-04T13:41:37;2.07;;;1.10;;
6251;SDS011;3159;52.414;9.784;2023-02-04T13:44:04;1.93;;;1.30;;
6251;SDS011;3159;52.414;9.784;2023-02-04T13:46:30;1.37;;;1.27;;
6251;SDS011;3159;52.414;9.784;2023-02-04T13:48:57;2.07;;;1.30;;
6251;SDS011;3159;52.414;9.784;2023-02-04T13:51:26;3.13;;;1.40;;
6251;SDS011;3159;52.414;9.784;2023-02-04T13:53:52;2.43;;;1.40;;
6251;SDS011;3159;52.414;9.784;2023-02-04T13:56:20;2.20;;;1.50;;
6251;SDS011;3159;52.414;9.784;2023-02-04T13:58:49;2.60;;;1.37;;
6251;SDS011;3159;52.414;9.784;2023-02-04T14:01:16;2.50;;;1.83;;
6251;SDS011;3159;52.414;9.784;2023-02-04T14:03:43;2.83;;;1.53;;
6251;SDS011;3159;52.414;9.784;2023-02-04T14:06:10;2.30;;;1.43;;
6251;SDS011;3159;52.414;9.784;2023-02-04T14:08:40;2.10;;;1.60;;
6251;SDS011;3159;52.414;9.784;2023-02-04T14:11:07;2.20;;;1.70;;
6251;SDS011;3159;52.414;9.784;2023-02-04T14:13:34;3.43;;;1.80;;
6251;SDS011;3159;52.414;9.784;2023-02-04T14:16:00;4.27;;;1.93;;
6251;SDS011;3159;52.414;9.784;2023-02-04T14:18:27;1.63;;;1.53;;
6251;SDS011;3159;52.414;9.784;2023-02-04T14:20:54;1.47;;;1.13;;
6251;SDS011;3159;52.414;9.784;2023-02-04T14:23:21;2.20;;;1.40;;
6251;SDS011;3159;52.414;9.784;2023-02-04T14:25:50;1.50;;;1.20;;
6251;SDS011;3159;52.414;9.784;2023-02-04T14:28:17;2.30;;;1.37;;
6251;SDS011;3159;52.414;9.784;2023-02-04T14:30:44;2.33;;;1.43;;
6251;SDS011;3159;52.414;9.784;2023-02-04T14:33:11;3.23;;;1.50;;
6251;SDS011;3159;52.414;9.784;2023-02-04T14:35:39;2.43;;;1.40;;
6251;SDS011;3159;52.414;9.784;2023-02-04T14:38:06;2.43;;;1.20;;
6251;SDS011;3159;52.414;9.784;2023-02-04T14:40:35;1.87;;;1.43;;
6251;SDS011;3159;52.414;9.784;2023-02-04T14:43:03;2.00;;;1.73;;
6251;SDS011;3159;52.414;9.784;2023-02-04T14:45:31;2.83;;;1.40;;
6251;SDS011;3159;52.414;9.784;2023-02-04T14:47:58;2.07;;;1.63;;
6251;SDS011;3159;52.414;9.784;2023-02-04T14:50:25;1.47;;;1.37;;
6251;SDS011;3159;52.414;9.784;2023-02-04T14:52:52;1.33;;;1.00;;
6251;SDS011;3159;52.414;9.784;2023-02-04T14:55:20;2.20;;;1.23;;
6251;SDS011;3159;52.414;9.784;2023-02-04T14:57:48;1.47;;;1.20;;
6251;SDS011;3159;52.414;9.784;2023-02-04T15:00:16;2.33;;;1.27;;
6251;SDS011;3159;52.414;9.784;2023-02-04T15:02:44;2.20;;;1.47;;
6251;SDS011;3159;52.414;9.784;2023-02-04T15:05:11;1.43;;;1.20;;
6251;SDS011;3159;52.414;9.784;2023-02-04T15:07:39;1.27;;;1.17;;
6251;SDS011;3159;52.414;9.784;2023-02-04T15:10:07;2.50;;;1.60;;
6251;SDS011;3159;52.414;9.784;2023-02-04T15:12:35;2.37;;;1.47;;
6251;SDS011;3159;52.414;9.784;2023-02-04T15:15:02;1.97;;;1.40;;
6251;SDS011;3159;52.414;9.784;2023-02-04T15:17:31;2.37;;;1.50;;
6251;SDS011;3159;52.414;9.784;2023-02-04T15:19:58;2.50;;;1.47;;